createdAt,value
2022-07-27T00:01:23.144Z,20.81
2022-07-27T00:04:31.076Z,20.93
2022-07-27T00:07:42.055Z,20.99
2022-07-27T00:10:53.193Z,21.09
2022-07-27T00:14:01.274Z,21.17
2022-07-27T00:17:13.276Z,21.20
2022-07-27T00:20:27.120Z,21.19
2022-07-27T00:23:38.988Z,21.15
2022-07-27T00:26:47.720Z,21.15
2022-07-27T00:29:58.722Z,21.21
2022-07-27T00:33:06.292Z,21.22
2022-07-27T00:36:14.720Z,21.27
2022-07-27T00:39:47.260Z,21.33
2022-07-27T00:43:08.488Z,21.33
2022-07-27T00:46:21.850Z,21.36
2022-07-27T00:49:37.166Z,21.35
2022-07-27T00:53:08.386Z,21.35
2022-07-27T01:01:11.744Z,21.28
2022-07-27T01:04:41.467Z,21.19
2022-07-27T01:08:25.570Z,21.05
2022-07-27T01:15:36.762Z,20.98
2022-07-27T01:22:33.034Z,20.90
2022-07-27T01:29:47.801Z,20.86
2022-07-27T01:33:08.503Z,20.81
2022-07-27T01:36:29.495Z,20.69
2022-07-27T01:40:02.785Z,20.65
2022-07-27T01:43:28.249Z,20.62
2022-07-27T01:46:51.954Z,20.58
2022-07-27T01:49:59.591Z,20.67
2022-07-27T01:53:10.968Z,20.69
2022-07-27T01:56:20.102Z,20.70
2022-07-27T01:59:28.447Z,20.72
2022-07-27T02:02:31.886Z,20.71
2022-07-27T02:05:35.122Z,20.67
2022-07-27T02:08:37.914Z,20.59
2022-07-27T02:11:59.936Z,20.60
2022-07-27T02:15:05.444Z,20.55
2022-07-27T02:18:14.583Z,20.53
2022-07-27T02:21:31.435Z,20.57
2022-07-27T02:24:35.319Z,20.52
2022-07-27T02:27:39.868Z,20.48
2022-07-27T02:30:42.583Z,20.42
2022-07-27T02:33:45.357Z,20.43
2022-07-27T02:36:48.162Z,20.41
2022-07-27T02:39:51.014Z,20.29
2022-07-27T02:42:55.086Z,20.29
2022-07-27T02:45:58.241Z,20.22
2022-07-27T02:49:01.032Z,20.20
2022-07-27T02:52:04.309Z,20.17
2022-07-27T02:55:08.781Z,20.14
2022-07-27T02:58:12.869Z,20.15
2022-07-27T03:01:16.199Z,20.10
2022-07-27T03:04:20.027Z,20.07
2022-07-27T03:07:22.797Z,20.01
2022-07-27T03:10:25.829Z,20.00
2022-07-27T03:13:30.126Z,19.96
2022-07-27T03:16:32.833Z,19.80
2022-07-27T03:19:35.640Z,19.68
2022-07-27T03:22:38.593Z,19.55
2022-07-27T03:25:41.364Z,19.40
2022-07-27T03:28:45.409Z,19.27
2022-07-27T03:31:48.189Z,19.17
2022-07-27T03:34:51.217Z,19.17
2022-07-27T03:37:54.043Z,19.23
2022-07-27T03:40:56.936Z,19.28
2022-07-27T03:44:01.014Z,19.36
2022-07-27T03:47:03.723Z,19.42
2022-07-27T03:50:07.771Z,19.48
2022-07-27T03:53:10.562Z,19.41
2022-07-27T03:56:13.291Z,19.36
2022-07-27T03:59:17.478Z,19.37
2022-07-27T04:02:20.285Z,19.31
2022-07-27T04:05:23.440Z,19.34
2022-07-27T04:08:32.268Z,19.33
2022-07-27T04:11:35.026Z,19.36
2022-07-27T04:14:41.702Z,19.36
2022-07-27T04:17:55.238Z,19.38
2022-07-27T04:21:01.931Z,19.39
2022-07-27T04:24:08.235Z,19.45
2022-07-27T04:27:10.925Z,19.50
2022-07-27T04:30:16.204Z,19.54
2022-07-27T04:33:18.899Z,19.55
2022-07-27T04:36:21.728Z,19.53
2022-07-27T04:39:29.920Z,19.55
2022-07-27T04:42:37.060Z,19.61
2022-07-27T04:45:57.863Z,19.65
2022-07-27T04:49:13.533Z,19.67
2022-07-27T04:52:26.310Z,19.75
2022-07-27T04:55:38.981Z,19.79
2022-07-27T04:59:09.827Z,19.79
2022-07-27T05:02:46.878Z,19.80
2022-07-27T05:06:27.649Z,19.85
2022-07-27T05:09:44.056Z,19.93
2022-07-27T05:12:55.922Z,19.98
2022-07-27T05:16:04.539Z,20.01
2022-07-27T05:23:09.945Z,20.11
2022-07-27T05:26:23.287Z,20.14
2022-07-27T05:29:50.077Z,20.20
2022-07-27T05:33:13.706Z,20.22
2022-07-27T05:36:25.728Z,20.24
2022-07-27T05:39:50.711Z,20.21
2022-07-27T05:43:20.739Z,20.24
2022-07-27T05:46:36.255Z,20.28
2022-07-27T05:49:47.094Z,20.33
2022-07-27T05:53:12.815Z,20.41
2022-07-27T06:00:00.628Z,20.59
2022-07-27T06:03:12.697Z,20.58
2022-07-27T06:06:41.356Z,20.52
2022-07-27T06:09:57.986Z,20.47
2022-07-27T06:13:28.727Z,20.49
2022-07-27T06:16:47.200Z,20.60
2022-07-27T06:20:18.446Z,20.65
2022-07-27T06:23:46.951Z,20.72
2022-07-27T06:27:29.786Z,20.80
2022-07-27T06:34:24.187Z,20.87
2022-07-27T06:37:29.514Z,20.85
2022-07-27T06:40:32.305Z,20.89
2022-07-27T06:43:36.427Z,20.99
2022-07-27T06:46:39.176Z,21.03
2022-07-27T06:49:41.877Z,20.98
2022-07-27T06:52:44.683Z,20.95
2022-07-27T06:55:47.472Z,20.97
2022-07-27T06:58:51.573Z,21.05
2022-07-27T07:01:54.346Z,21.11
2022-07-27T07:04:57.038Z,21.14
2022-07-27T07:08:00.899Z,21.14
2022-07-27T07:11:03.780Z,21.18
2022-07-27T07:14:07.841Z,21.27
2022-07-27T07:17:13.255Z,21.32
2022-07-27T07:20:16.585Z,21.36
2022-07-27T07:23:19.303Z,21.42
2022-07-27T07:26:22.056Z,21.53
2022-07-27T07:29:26.187Z,21.65
2022-07-27T07:32:33.413Z,21.72
2022-07-27T07:35:36.533Z,21.76
2022-07-27T07:38:39.350Z,21.77
2022-07-27T07:41:42.249Z,21.86
2022-07-27T07:44:46.446Z,21.92
2022-07-27T07:47:49.379Z,22.04
2022-07-27T07:50:53.913Z,22.19
2022-07-27T07:53:56.991Z,22.38
2022-07-27T07:56:59.725Z,22.33
2022-07-27T08:00:04.823Z,22.40
2022-07-27T08:03:07.614Z,22.42
2022-07-27T08:06:11.026Z,22.39
2022-07-27T08:09:16.850Z,22.44
2022-07-27T08:12:19.570Z,22.57
2022-07-27T08:15:34.575Z,22.66
2022-07-27T08:18:39.178Z,22.77
2022-07-27T08:21:41.865Z,22.85
2022-07-27T08:24:45.148Z,22.89
2022-07-27T08:27:47.936Z,23.01
2022-07-27T08:30:52.062Z,23.03
2022-07-27T08:33:54.807Z,22.93
2022-07-27T08:36:58.532Z,23.05
2022-07-27T08:43:25.692Z,23.26
2022-07-27T08:46:32.996Z,23.41
2022-07-27T08:49:43.697Z,23.62
2022-07-27T08:52:46.944Z,23.76
2022-07-27T08:55:49.763Z,23.86
2022-07-27T08:58:52.487Z,24.08
2022-07-27T09:01:56.670Z,24.22
2022-07-27T09:04:59.733Z,24.32
2022-07-27T09:08:11.219Z,24.51
2022-07-27T09:11:16.403Z,24.64
2022-07-27T09:14:19.167Z,24.61
2022-07-27T09:17:48.050Z,24.58
2022-07-27T09:21:10.265Z,24.43
2022-07-27T09:24:44.325Z,24.23
2022-07-27T09:27:40.120Z,24.30
2022-07-27T09:30:44.186Z,24.14
2022-07-27T09:33:51.101Z,24.27
2022-07-27T09:36:56.029Z,24.64
2022-07-27T09:40:22.607Z,25.22
2022-07-27T09:44:12.240Z,25.69
2022-07-27T09:46:51.640Z,25.86
2022-07-27T09:49:58.099Z,25.98
2022-07-27T09:53:41.837Z,26.06
2022-07-27T09:56:36.662Z,26.08
2022-07-27T09:59:39.406Z,26.38
2022-07-27T10:02:43.399Z,26.47
2022-07-27T10:05:47.583Z,26.66
2022-07-27T10:08:51.856Z,26.72
2022-07-27T10:11:54.674Z,26.93
2022-07-27T10:14:57.482Z,27.20
2022-07-27T10:18:09.002Z,27.30
2022-07-27T10:21:14.070Z,27.34
2022-07-27T10:24:28.799Z,27.28
2022-07-27T10:27:32.967Z,27.30
2022-07-27T10:30:35.790Z,27.65
2022-07-27T10:33:46.790Z,28.05
2022-07-27T10:36:54.233Z,28.28
2022-07-27T10:40:13.245Z,28.37
2022-07-27T10:43:21.503Z,27.93
2022-07-27T10:46:24.447Z,27.33
2022-07-27T10:49:29.226Z,26.83
2022-07-27T10:52:44.309Z,26.43
2022-07-27T10:55:51.560Z,26.28
2022-07-27T10:58:55.088Z,26.05
2022-07-27T11:01:59.391Z,25.93
2022-07-27T11:05:05.796Z,25.83
2022-07-27T11:11:34.536Z,26.69
2022-07-27T11:14:46.150Z,27.27
2022-07-27T11:17:58.495Z,27.64
2022-07-27T11:21:14.735Z,28.20
2022-07-27T11:24:19.031Z,28.11
2022-07-27T11:27:25.238Z,27.77
2022-07-27T11:30:29.609Z,27.33
2022-07-27T11:33:32.402Z,26.92
2022-07-27T11:36:41.114Z,26.55
2022-07-27T11:40:03.388Z,26.40
2022-07-27T11:43:08.031Z,26.37
2022-07-27T11:46:19.536Z,26.27
2022-07-27T11:49:28.498Z,26.16
2022-07-27T11:52:31.318Z,26.01
2022-07-27T11:55:35.375Z,25.82
2022-07-27T11:59:01.520Z,25.70
2022-07-27T12:02:07.137Z,25.74
2022-07-27T12:05:11.465Z,26.00
2022-07-27T12:08:14.399Z,26.35
2022-07-27T12:11:34.065Z,26.74
2022-07-27T12:14:39.116Z,26.91
2022-07-27T12:17:42.734Z,26.88
2022-07-27T12:20:48.575Z,26.68
2022-07-27T12:23:52.663Z,26.54
2022-07-27T12:27:06.857Z,26.29
2022-07-27T12:30:12.575Z,26.08
2022-07-27T12:33:27.432Z,25.91
2022-07-27T12:36:31.353Z,25.77
2022-07-27T12:39:34.084Z,25.82
2022-07-27T12:42:38.131Z,25.90
2022-07-27T12:45:40.994Z,26.05
2022-07-27T12:48:44.182Z,26.43
2022-07-27T12:51:46.960Z,26.86
2022-07-27T12:54:49.646Z,27.24
2022-07-27T12:57:56.521Z,27.60
2022-07-27T13:01:00.118Z,27.82
2022-07-27T13:04:03.344Z,27.61
2022-07-27T13:07:06.092Z,27.71
2022-07-27T13:10:11.119Z,27.98
2022-07-27T13:13:15.193Z,28.18
2022-07-27T13:16:17.923Z,28.44
2022-07-27T13:19:20.659Z,28.20
2022-07-27T13:22:23.389Z,27.72
2022-07-27T13:25:26.160Z,27.19
2022-07-27T13:28:30.275Z,26.84
2022-07-27T13:31:33.130Z,26.51
2022-07-27T13:34:35.971Z,26.33
2022-07-27T13:37:38.973Z,26.22
2022-07-27T13:40:41.854Z,26.20
2022-07-27T13:43:45.943Z,26.40
2022-07-27T13:46:49.684Z,26.86
2022-07-27T13:49:52.498Z,27.15
2022-07-27T13:52:55.456Z,26.97
2022-07-27T13:55:58.197Z,27.08
2022-07-27T13:59:02.327Z,27.14
2022-07-27T14:02:05.190Z,27.16
2022-07-27T14:05:09.682Z,27.61
2022-07-27T14:08:15.974Z,28.02
2022-07-27T14:11:18.699Z,28.30
2022-07-27T14:14:25.314Z,28.59
2022-07-27T14:17:29.992Z,28.30
2022-07-27T14:20:33.120Z,27.86
2022-07-27T14:23:37.004Z,27.39
2022-07-27T14:26:39.726Z,27.10
2022-07-27T14:29:43.911Z,26.93
2022-07-27T14:32:46.894Z,26.71
2022-07-27T14:35:49.642Z,26.75
2022-07-27T14:38:53.491Z,27.14
2022-07-27T14:41:56.227Z,27.32
2022-07-27T14:45:00.312Z,27.38
2022-07-27T14:48:03.115Z,27.37
2022-07-27T14:51:05.917Z,27.39
2022-07-27T14:54:08.669Z,27.28
2022-07-27T14:57:11.457Z,27.39
2022-07-27T15:00:17.263Z,27.80
2022-07-27T15:03:21.192Z,28.22
2022-07-27T15:06:23.880Z,28.54
2022-07-27T15:09:28.454Z,28.71
2022-07-27T15:12:36.135Z,28.87
2022-07-27T15:15:41.884Z,29.01
2022-07-27T15:18:45.869Z,29.09
2022-07-27T15:21:48.821Z,29.25
2022-07-27T15:24:52.573Z,29.24
2022-07-27T15:27:55.287Z,29.20
2022-07-27T15:30:59.444Z,28.98
2022-07-27T15:34:02.546Z,28.66
2022-07-27T15:37:07.587Z,28.58
2022-07-27T15:40:29.254Z,28.29
2022-07-27T15:43:32.027Z,28.36
2022-07-27T15:46:36.252Z,28.44
2022-07-27T15:49:38.987Z,28.50
2022-07-27T15:52:41.706Z,28.61
2022-07-27T15:55:44.624Z,28.44
2022-07-27T15:58:47.354Z,28.27
2022-07-27T16:01:51.612Z,27.88
2022-07-27T16:04:56.428Z,27.61
2022-07-27T16:07:59.371Z,27.44
2022-07-27T16:11:02.183Z,27.65
2022-07-27T16:14:05.208Z,27.81
2022-07-27T16:17:09.279Z,27.97
2022-07-27T16:20:13.444Z,28.07
2022-07-27T16:23:18.653Z,28.22
2022-07-27T16:26:24.903Z,28.19
2022-07-27T16:29:28.382Z,28.06
2022-07-27T16:32:32.878Z,27.83
2022-07-27T16:35:38.255Z,27.66
2022-07-27T16:38:49.482Z,27.54
2022-07-27T16:41:54.907Z,27.33
2022-07-27T16:44:57.631Z,27.21
2022-07-27T16:48:01.774Z,27.13
2022-07-27T16:51:04.765Z,26.94
2022-07-27T16:54:24.523Z,26.66
2022-07-27T16:57:28.243Z,26.51
2022-07-27T17:00:35.133Z,26.39
2022-07-27T17:03:46.878Z,26.38
2022-07-27T17:06:49.586Z,26.32
2022-07-27T17:09:52.414Z,26.23
2022-07-27T17:12:55.785Z,26.20
2022-07-27T17:16:00.968Z,26.11
2022-07-27T17:19:05.207Z,26.01
2022-07-27T17:22:07.975Z,25.90
2022-07-27T17:25:10.721Z,25.85
2022-07-27T17:28:14.225Z,25.82
2022-07-27T17:31:18.729Z,25.78
2022-07-27T17:34:22.925Z,25.69
2022-07-27T17:37:34.233Z,25.54
2022-07-27T17:40:46.454Z,25.43
2022-07-27T17:43:49.171Z,25.39
2022-07-27T17:46:51.984Z,25.29
2022-07-27T17:49:57.113Z,25.22
2022-07-27T17:52:59.859Z,25.10
2022-07-27T17:56:02.822Z,25.02
2022-07-27T17:59:34.916Z,24.98
2022-07-27T18:02:28.447Z,24.93
2022-07-27T18:05:32.892Z,24.88
2022-07-27T18:08:36.136Z,24.80
2022-07-27T18:11:39.297Z,24.74
2022-07-27T18:15:02.486Z,24.64
2022-07-27T18:18:05.435Z,24.54
2022-07-27T18:21:10.507Z,24.47
2022-07-27T18:24:13.308Z,24.42
2022-07-27T18:27:16.204Z,24.38
2022-07-27T18:30:20.777Z,24.30
2022-07-27T18:33:24.865Z,24.22
2022-07-27T18:36:29.392Z,24.17
2022-07-27T18:39:33.593Z,24.06
2022-07-27T18:42:36.961Z,23.99
2022-07-27T18:45:41.019Z,23.93
2022-07-27T18:48:44.376Z,23.81
2022-07-27T18:51:48.527Z,23.70
2022-07-27T18:54:51.699Z,23.63
2022-07-27T18:57:55.756Z,23.59
2022-07-27T19:00:59.521Z,23.58
2022-07-27T19:04:02.735Z,23.55
2022-07-27T19:07:08.285Z,23.51
2022-07-27T19:10:11.739Z,23.52
2022-07-27T19:13:14.571Z,23.50
2022-07-27T19:16:17.318Z,23.50
2022-07-27T19:19:23.185Z,23.47
2022-07-27T19:22:27.844Z,23.42
2022-07-27T19:25:31.355Z,23.39
2022-07-27T19:28:34.058Z,23.33
2022-07-27T19:31:37.807Z,23.25
2022-07-27T19:34:41.902Z,23.21
2022-07-27T19:37:45.946Z,23.16
2022-07-27T19:40:48.666Z,23.10
2022-07-27T19:43:51.402Z,23.06
2022-07-27T19:46:54.516Z,22.96
2022-07-27T19:49:57.224Z,22.87
2022-07-27T19:53:01.351Z,22.83
2022-07-27T19:56:04.401Z,22.85
2022-07-27T19:59:07.563Z,22.77
2022-07-27T20:02:10.447Z,22.66
2022-07-27T20:05:13.364Z,22.55
2022-07-27T20:08:17.580Z,22.43
2022-07-27T20:11:20.345Z,22.28
2022-07-27T20:14:23.078Z,22.15
2022-07-27T20:17:25.814Z,22.05
2022-07-27T20:20:28.743Z,21.97
2022-07-27T20:23:32.841Z,21.89
2022-07-27T20:26:35.612Z,21.73
2022-07-27T20:29:38.355Z,21.65
2022-07-27T20:32:41.094Z,21.53
2022-07-27T20:35:43.821Z,21.51
2022-07-27T20:38:48.250Z,21.45
2022-07-27T20:41:51.089Z,21.41
2022-07-27T20:44:54.158Z,21.40
2022-07-27T20:47:57.107Z,21.37
2022-07-27T20:51:00.451Z,21.37
2022-07-27T20:54:05.560Z,21.33
2022-07-27T20:57:08.563Z,21.31
2022-07-27T21:00:12.538Z,21.25
2022-07-27T21:03:15.273Z,21.26
2022-07-27T21:06:17.991Z,21.23
2022-07-27T21:09:22.381Z,21.17
2022-07-27T21:12:25.175Z,21.24
2022-07-27T21:15:33.555Z,21.24
2022-07-27T21:18:37.577Z,21.27
2022-07-27T21:21:40.411Z,21.37
2022-07-27T21:24:44.483Z,21.44
2022-07-27T21:27:52.828Z,21.47
2022-07-27T21:30:56.334Z,21.47
2022-07-27T21:33:59.130Z,21.48
2022-07-27T21:37:02.408Z,21.52
2022-07-27T21:40:07.370Z,21.47
2022-07-27T21:43:10.335Z,21.44
2022-07-27T21:46:13.477Z,21.39
2022-07-27T21:49:16.360Z,21.26
2022-07-27T21:52:19.163Z,21.17
2022-07-27T21:55:23.630Z,21.01
2022-07-27T21:58:26.923Z,20.88
2022-07-27T22:01:29.818Z,20.78
2022-07-27T22:04:32.668Z,20.69
2022-07-27T22:07:35.493Z,20.65
2022-07-27T22:10:39.940Z,20.59
2022-07-27T22:13:42.683Z,20.47
2022-07-27T22:16:45.550Z,20.42
2022-07-27T22:19:48.290Z,20.40
2022-07-27T22:22:51.811Z,20.34
2022-07-27T22:25:56.364Z,20.26
2022-07-27T22:29:00.912Z,20.12
2022-07-27T22:32:03.847Z,20.01
2022-07-27T22:35:07.713Z,19.93
2022-07-27T22:38:32.260Z,19.87
2022-07-27T22:41:49.701Z,19.85
2022-07-27T22:45:03.896Z,19.79
2022-07-27T22:48:10.609Z,19.73
2022-07-27T22:51:19.058Z,19.74
2022-07-27T23:06:42.499Z,19.42
2022-07-27T23:09:50.613Z,19.35
2022-07-27T23:13:11.505Z,19.36
2022-07-27T23:17:00.905Z,19.32
2022-07-27T23:20:31.423Z,19.36
2022-07-27T23:23:52.221Z,19.40
2022-07-27T23:27:01.979Z,19.41
2022-07-27T23:30:13.482Z,19.48
2022-07-27T23:33:20.930Z,19.50
2022-07-27T23:36:33.174Z,19.58
2022-07-27T23:39:41.300Z,19.61
2022-07-27T23:42:54.184Z,19.68
2022-07-27T23:46:04.692Z,19.73
2022-07-27T23:49:15.570Z,19.74
2022-07-27T23:52:27.865Z,19.73
2022-07-27T23:55:36.578Z,19.70
2022-07-27T23:58:48.061Z,19.70
